createdAt,value
2018-12-06T00:01:15.972Z,7.98
2018-12-06T00:03:45.755Z,8.02
2018-12-06T00:07:43.041Z,7.96
2018-12-06T00:10:14.148Z,7.79
2018-12-06T00:12:44.727Z,7.86
2018-12-06T00:15:27.605Z,7.92
2018-12-06T00:17:58.841Z,7.93
2018-12-06T00:20:30.445Z,7.92
2018-12-06T00:23:02.286Z,7.90
2018-12-06T00:25:33.657Z,7.97
2018-12-06T00:28:04.687Z,8.01
2018-12-06T00:30:41.089Z,8.00
2018-12-06T00:33:12.619Z,8.00
2018-12-06T00:35:42.931Z,8.02
2018-12-06T00:38:15.493Z,8.03
2018-12-06T00:40:46.668Z,7.95
2018-12-06T00:43:19.251Z,7.92
2018-12-06T00:45:50.521Z,7.97
2018-12-06T00:48:22.722Z,7.98
2018-12-06T00:50:55.247Z,7.88
2018-12-06T00:53:26.245Z,7.84
2018-12-06T00:55:57.495Z,7.83
2018-12-06T00:58:29.218Z,7.85
2018-12-06T01:01:01.279Z,7.91
2018-12-06T01:03:33.975Z,7.97
2018-12-06T01:06:05.701Z,7.94
2018-12-06T01:08:35.776Z,7.90
2018-12-06T01:11:08.499Z,7.88
2018-12-06T01:13:40.291Z,7.77
2018-12-06T01:16:12.601Z,7.81
2018-12-06T01:18:43.431Z,7.79
2018-12-06T01:21:15.199Z,7.86
2018-12-06T01:23:46.663Z,7.92
2018-12-06T01:26:17.657Z,7.97
2018-12-06T01:28:50.110Z,8.05
2018-12-06T01:31:20.600Z,8.09
2018-12-06T01:33:52.720Z,8.10
2018-12-06T01:36:25.249Z,8.07
2018-12-06T01:38:56.453Z,8.08
2018-12-06T01:41:27.965Z,8.11
2018-12-06T01:43:59.085Z,8.14
2018-12-06T01:46:31.743Z,8.19
2018-12-06T01:49:03.621Z,8.28
2018-12-06T01:51:36.554Z,8.32
2018-12-06T01:54:07.654Z,8.37
2018-12-06T01:57:31.526Z,8.54
2018-12-06T02:00:03.336Z,8.54
2018-12-06T02:02:33.656Z,8.54
2018-12-06T02:05:06.634Z,8.53
2018-12-06T02:07:37.365Z,8.52
2018-12-06T02:10:08.305Z,8.50
2018-12-06T02:12:38.950Z,8.57
2018-12-06T02:15:10.354Z,8.41
2018-12-06T02:17:40.282Z,8.60
2018-12-06T02:20:11.393Z,8.47
2018-12-06T02:22:41.791Z,8.62
2018-12-06T02:25:14.045Z,8.69
2018-12-06T02:27:44.337Z,8.73
2018-12-06T02:30:15.054Z,8.75
2018-12-06T02:32:46.382Z,8.80
2018-12-06T02:35:18.141Z,8.86
2018-12-06T02:37:49.680Z,8.90
2018-12-06T02:40:20.743Z,8.91
2018-12-06T02:42:51.006Z,8.87
2018-12-06T02:45:21.084Z,8.89
2018-12-06T02:47:52.098Z,8.90
2018-12-06T02:50:23.622Z,8.85
2018-12-06T02:52:56.285Z,8.84
2018-12-06T02:55:27.078Z,8.83
2018-12-06T02:57:59.818Z,8.84
2018-12-06T03:00:31.348Z,8.77
2018-12-06T03:03:02.072Z,8.76
2018-12-06T03:05:33.505Z,8.72
2018-12-06T03:08:05.223Z,8.61
2018-12-06T03:10:36.759Z,8.68
2018-12-06T03:13:07.732Z,8.65
2018-12-06T03:15:37.667Z,8.67
2018-12-06T03:18:08.704Z,8.67
2018-12-06T03:20:40.250Z,8.69
2018-12-06T03:23:11.076Z,8.66
2018-12-06T03:25:41.715Z,8.69
2018-12-06T03:28:12.782Z,8.62
2018-12-06T03:30:42.960Z,8.62
2018-12-06T03:33:14.222Z,8.67
2018-12-06T03:35:44.769Z,8.71
2018-12-06T03:38:18.380Z,8.75
2018-12-06T03:40:50.599Z,8.85
2018-12-06T03:43:22.424Z,8.87
2018-12-06T03:45:52.842Z,8.96
2018-12-06T03:48:24.170Z,9.04
2018-12-06T03:50:55.833Z,9.07
2018-12-06T03:53:26.424Z,9.08
2018-12-06T03:55:56.764Z,9.03
2018-12-06T03:58:32.281Z,9.06
2018-12-06T04:01:02.343Z,9.15
2018-12-06T04:03:33.329Z,9.15
2018-12-06T04:06:04.265Z,9.17
2018-12-06T04:08:36.096Z,9.18
2018-12-06T04:11:06.544Z,9.21
2018-12-06T04:13:36.931Z,9.27
2018-12-06T04:16:06.918Z,9.34
2018-12-06T04:18:37.154Z,9.38
2018-12-06T04:21:07.444Z,9.39
2018-12-06T04:23:37.236Z,8.99
2018-12-06T04:26:08.535Z,9.41
2018-12-06T04:28:40.273Z,9.42
2018-12-06T04:31:10.500Z,9.37
2018-12-06T04:33:40.413Z,9.37
2018-12-06T04:36:11.818Z,9.32
2018-12-06T04:38:42.534Z,8.86
2018-12-06T04:41:14.686Z,9.35
2018-12-06T04:43:44.825Z,9.37
2018-12-06T04:46:15.635Z,8.80
2018-12-06T04:48:45.938Z,9.32
2018-12-06T04:51:16.136Z,9.34
2018-12-06T04:53:46.023Z,9.37
2018-12-06T04:56:16.033Z,9.37
2018-12-06T04:58:46.297Z,9.42
2018-12-06T05:01:25.089Z,9.39
2018-12-06T05:03:55.443Z,9.37
2018-12-06T05:06:25.839Z,9.37
2018-12-06T05:08:55.836Z,9.41
2018-12-06T05:11:30.735Z,9.46
2018-12-06T05:14:00.875Z,9.51
2018-12-06T05:16:30.877Z,9.47
2018-12-06T05:19:00.838Z,9.42
2018-12-06T05:21:32.726Z,9.39
2018-12-06T05:24:03.182Z,9.35
2018-12-06T05:26:33.662Z,9.24
2018-12-06T05:29:03.705Z,9.18
2018-12-06T05:31:33.553Z,9.23
2018-12-06T05:34:03.518Z,9.26
2018-12-06T05:36:33.976Z,9.25
2018-12-06T05:39:03.738Z,9.29
2018-12-06T05:41:33.681Z,9.32
2018-12-06T05:44:04.209Z,9.35
2018-12-06T05:46:33.969Z,9.36
2018-12-06T05:49:03.849Z,9.34
2018-12-06T05:51:34.037Z,9.32
2018-12-06T05:54:04.355Z,9.35
2018-12-06T05:56:34.232Z,9.39
2018-12-06T05:59:04.231Z,9.27
2018-12-06T06:01:34.214Z,9.20
2018-12-06T06:04:05.603Z,9.07
2018-12-06T06:06:36.244Z,8.94
2018-12-06T06:09:08.408Z,8.86
2018-12-06T06:11:38.666Z,8.37
2018-12-06T06:14:08.504Z,8.81
2018-12-06T06:16:38.449Z,8.86
2018-12-06T06:19:08.216Z,8.91
2018-12-06T06:21:38.370Z,8.99
2018-12-06T06:24:08.587Z,9.07
2018-12-06T06:26:39.164Z,9.07
2018-12-06T06:29:09.806Z,9.11
2018-12-06T06:31:39.543Z,9.11
2018-12-06T06:34:09.450Z,9.12
2018-12-06T06:36:39.801Z,9.14
2018-12-06T06:39:10.298Z,9.19
2018-12-06T06:41:40.181Z,9.25
2018-12-06T06:44:10.550Z,9.27
2018-12-06T06:46:40.643Z,9.26
2018-12-06T06:49:13.729Z,9.26
2018-12-06T06:51:42.159Z,9.31
2018-12-06T06:54:12.448Z,9.28
2018-12-06T06:56:42.152Z,9.24
2018-12-06T06:59:12.257Z,9.22
2018-12-06T07:01:42.001Z,9.18
2018-12-06T07:04:12.051Z,9.17
2018-12-06T07:06:44.284Z,9.10
2018-12-06T07:09:14.042Z,9.05
2018-12-06T07:11:43.772Z,9.06
2018-12-06T07:14:13.778Z,9.06
2018-12-06T07:16:44.912Z,8.95
2018-12-06T07:19:14.951Z,8.89
2018-12-06T07:21:44.831Z,8.80
2018-12-06T07:24:15.172Z,8.77
2018-12-06T07:26:45.448Z,8.73
2018-12-06T07:29:16.104Z,8.67
2018-12-06T07:31:46.074Z,8.59
2018-12-06T07:34:17.433Z,8.48
2018-12-06T07:36:47.262Z,8.41
2018-12-06T07:39:17.640Z,8.35
2018-12-06T07:41:47.729Z,8.35
2018-12-06T07:44:19.928Z,8.35
2018-12-06T07:46:50.142Z,8.40
2018-12-06T07:49:20.329Z,8.46
2018-12-06T07:51:50.405Z,8.55
2018-12-06T07:54:20.602Z,8.64
2018-12-06T07:56:50.396Z,8.81
2018-12-06T07:59:20.340Z,8.27
2018-12-06T08:01:50.064Z,9.10
2018-12-06T08:04:21.237Z,9.21
2018-12-06T08:06:52.032Z,9.32
2018-12-06T08:09:24.633Z,9.46
2018-12-06T08:11:54.610Z,9.61
2018-12-06T08:14:24.940Z,9.72
2018-12-06T08:16:54.839Z,9.94
2018-12-06T08:19:25.994Z,10.05
2018-12-06T08:22:04.536Z,10.12
2018-12-06T08:24:34.813Z,10.17
2018-12-06T08:27:06.382Z,10.20
2018-12-06T08:29:37.167Z,9.70
2018-12-06T08:32:07.872Z,10.36
2018-12-06T08:34:40.400Z,10.46
2018-12-06T08:37:10.650Z,10.64
2018-12-06T08:39:42.219Z,10.85
2018-12-06T08:42:12.035Z,10.94
2018-12-06T08:44:42.476Z,11.00
2018-12-06T14:38:10.018Z,10.97
2018-12-06T14:40:39.981Z,11.01
2018-12-06T14:43:10.342Z,10.97
2018-12-06T14:45:40.376Z,10.97
2018-12-06T14:48:11.160Z,10.99
2018-12-06T14:50:41.196Z,11.04
2018-12-06T14:53:11.286Z,11.05
2018-12-06T14:55:41.145Z,11.02
2018-12-06T14:58:11.947Z,10.77
2018-12-06T15:00:42.563Z,10.72
2018-12-06T15:03:12.364Z,10.69
2018-12-06T15:05:43.850Z,10.66
2018-12-06T15:08:13.883Z,10.81
2018-12-06T15:10:43.948Z,10.79
2018-12-06T15:13:13.862Z,10.82
2018-12-06T15:15:47.782Z,10.72
2018-12-06T15:18:21.084Z,10.68
2018-12-06T15:20:53.406Z,10.33
2018-12-06T15:23:24.292Z,10.58
2018-12-06T15:25:54.813Z,10.56
2018-12-06T15:28:25.015Z,10.60
2018-12-06T15:30:57.685Z,10.58
2018-12-06T15:33:27.890Z,10.50
2018-12-06T15:35:57.997Z,10.57
2018-12-06T15:38:27.985Z,10.62
2018-12-06T15:40:58.075Z,10.74
2018-12-06T15:43:29.626Z,10.81
2018-12-06T15:45:59.372Z,10.75
2018-12-06T15:48:29.943Z,10.71
2018-12-06T15:50:59.684Z,10.79
2018-12-06T15:53:29.495Z,10.83
2018-12-06T15:56:01.008Z,10.76
2018-12-06T15:58:30.782Z,10.88
2018-12-06T16:01:00.620Z,11.03
2018-12-06T16:03:31.201Z,11.01
2018-12-06T16:06:01.724Z,10.89
2018-12-06T16:08:32.643Z,10.95
2018-12-06T16:11:02.893Z,10.93
2018-12-06T16:13:32.945Z,10.78
2018-12-06T16:16:02.829Z,10.80
2018-12-06T16:18:33.129Z,10.87
2018-12-06T16:21:03.013Z,10.78
2018-12-06T16:23:32.811Z,10.74
2018-12-06T16:26:06.667Z,10.76
2018-12-06T16:28:38.038Z,10.80
2018-12-06T16:31:10.429Z,10.88
2018-12-06T16:33:42.510Z,10.95
2018-12-06T16:36:12.624Z,10.96
2018-12-06T16:38:43.516Z,11.08
2018-12-06T16:41:14.138Z,11.19
2018-12-06T16:43:44.217Z,11.19
2018-12-06T16:46:16.707Z,11.18
2018-12-06T16:48:46.842Z,11.18
2018-12-06T16:51:17.258Z,11.24
2018-12-06T16:53:48.030Z,11.32
2018-12-06T16:56:17.972Z,11.37
2018-12-06T16:58:48.863Z,11.39
2018-12-06T17:01:19.148Z,11.37
2018-12-06T17:03:49.022Z,11.38
2018-12-06T17:06:19.109Z,11.47
2018-12-06T17:08:49.853Z,11.50
2018-12-06T17:11:20.423Z,11.50
2018-12-06T17:13:51.838Z,11.59
2018-12-06T17:16:21.847Z,11.63
2018-12-06T17:18:51.599Z,11.60
2018-12-06T17:21:21.888Z,11.63
2018-12-06T17:23:53.012Z,11.57
2018-12-06T17:26:23.352Z,11.50
2018-12-06T17:28:53.520Z,11.53
2018-12-06T17:31:23.393Z,11.53
2018-12-06T17:33:54.223Z,11.56
2018-12-06T17:36:26.730Z,11.62
2018-12-06T17:38:57.670Z,11.59
2018-12-06T17:41:28.744Z,11.61
2018-12-06T17:43:59.103Z,11.54
2018-12-06T17:46:28.874Z,11.46
2018-12-06T17:48:58.790Z,11.48
2018-12-06T17:51:28.869Z,11.48
2018-12-06T17:53:58.751Z,11.51
2018-12-06T17:56:28.911Z,11.53
2018-12-06T17:58:59.244Z,11.47
2018-12-06T18:01:29.205Z,11.42
2018-12-06T18:04:00.603Z,11.48
2018-12-06T18:06:30.917Z,11.57
2018-12-06T18:09:00.977Z,11.59
2018-12-06T18:11:31.135Z,11.65
2018-12-06T18:14:01.417Z,11.69
2018-12-06T18:16:31.376Z,11.67
2018-12-06T18:19:01.209Z,11.64
2018-12-06T18:21:31.766Z,11.71
2018-12-06T18:24:01.533Z,11.68
2018-12-06T18:26:32.332Z,11.74
2018-12-06T18:29:02.880Z,11.73
2018-12-06T18:31:32.961Z,11.69
2018-12-06T18:34:05.156Z,11.73
2018-12-06T18:36:37.849Z,11.74
2018-12-06T18:39:09.675Z,10.50
2018-12-06T18:41:39.625Z,11.66
2018-12-06T18:44:12.927Z,11.77
2018-12-06T18:46:58.478Z,11.90
2018-12-06T18:49:29.754Z,11.94
2018-12-06T18:52:00.626Z,11.94
2018-12-06T18:54:32.088Z,11.89
2018-12-06T18:57:02.416Z,11.85
2018-12-06T18:59:32.786Z,11.97
2018-12-06T19:02:05.564Z,12.00
2018-12-06T19:04:35.883Z,12.08
2018-12-06T19:07:06.204Z,12.05
2018-12-06T19:09:37.564Z,12.06
2018-12-06T19:12:07.687Z,12.13
2018-12-06T19:17:39.362Z,12.11
2018-12-06T19:20:11.106Z,12.07
2018-12-06T19:22:41.250Z,12.07
2018-12-06T19:25:11.439Z,12.10
2018-12-06T19:27:41.652Z,12.13
2018-12-06T19:30:12.879Z,12.18
2018-12-06T19:32:45.781Z,11.85
2018-12-06T19:35:16.791Z,12.37
2018-12-06T19:37:47.987Z,12.36
2018-12-06T19:40:18.356Z,12.34
2018-12-06T19:42:49.209Z,12.30
2018-12-06T19:45:20.236Z,12.31
2018-12-06T19:47:50.086Z,12.31
2018-12-06T19:50:21.559Z,12.33
2018-12-06T19:52:51.804Z,12.27
2018-12-06T19:55:28.384Z,12.27
2018-12-06T19:57:59.025Z,12.24
2018-12-06T20:00:30.592Z,12.24
2018-12-06T20:03:00.521Z,12.33
2018-12-06T20:05:30.553Z,12.35
2018-12-06T20:08:00.690Z,12.34
2018-12-06T20:10:31.726Z,12.41
2018-12-06T20:13:03.204Z,12.40
2018-12-06T20:15:33.609Z,12.33
2018-12-06T20:18:03.660Z,12.31
2018-12-06T20:20:33.449Z,12.32
2018-12-06T20:23:04.582Z,12.34
2018-12-06T20:25:34.837Z,12.28
2018-12-06T20:28:04.717Z,12.25
2018-12-06T20:30:34.927Z,12.26
2018-12-06T20:33:04.720Z,12.31
2018-12-06T20:35:34.987Z,12.31
2018-12-06T20:38:05.575Z,12.32
2018-12-06T20:40:35.476Z,12.29
2018-12-06T20:43:05.969Z,12.28
2018-12-06T20:45:37.613Z,12.27
2018-12-06T20:48:07.537Z,12.21
2018-12-06T20:50:37.342Z,12.17
2018-12-06T20:53:07.257Z,12.16
2018-12-06T20:55:37.468Z,12.19
2018-12-06T20:58:14.649Z,12.18
2018-12-06T21:00:39.817Z,12.22
2018-12-06T21:03:12.193Z,12.20
2018-12-06T21:05:42.607Z,12.22
2018-12-06T21:08:12.751Z,12.18
2018-12-06T21:10:42.915Z,12.26
2018-12-06T21:13:13.048Z,12.28
2018-12-06T21:15:43.161Z,12.31
2018-12-06T21:18:12.824Z,12.27
2018-12-06T21:20:43.142Z,12.30
2018-12-06T21:23:13.047Z,12.41
2018-12-06T21:25:43.010Z,12.42
2018-12-06T21:28:14.332Z,12.42
2018-12-06T21:30:44.738Z,12.44
2018-12-06T21:33:14.689Z,12.51
2018-12-06T21:35:44.847Z,12.42
2018-12-06T21:38:16.192Z,12.48
2018-12-06T21:40:46.080Z,12.49
2018-12-06T21:43:16.394Z,12.51
2018-12-06T21:45:46.073Z,12.55
2018-12-06T21:48:16.478Z,12.51
2018-12-06T21:50:46.600Z,12.54
2018-12-06T21:53:16.313Z,12.57
2018-12-06T21:55:46.044Z,12.15
2018-12-06T21:58:17.084Z,12.66
2018-12-06T22:00:46.911Z,12.05
2018-12-06T22:03:16.677Z,12.67
2018-12-06T22:05:46.750Z,12.68
2018-12-06T22:08:20.417Z,12.75
2018-12-06T22:10:51.722Z,12.63
2018-12-06T22:13:22.333Z,12.69
2018-12-06T22:15:53.195Z,12.64
2018-12-06T22:18:23.517Z,12.73
2018-12-06T22:20:53.841Z,12.83
2018-12-06T22:23:23.600Z,12.85
2018-12-06T22:25:53.751Z,12.90
2018-12-06T22:28:23.520Z,12.89
2018-12-06T22:30:53.269Z,12.87
2018-12-06T22:33:23.804Z,12.90
2018-12-06T22:35:54.452Z,12.92
2018-12-06T22:38:25.126Z,12.77
2018-12-06T22:40:55.043Z,12.77
2018-12-06T22:43:26.127Z,12.69
2018-12-06T22:46:00.360Z,12.74
2018-12-06T22:48:30.172Z,12.72
2018-12-06T22:50:59.930Z,12.75
2018-12-06T22:53:30.055Z,12.78
2018-12-06T22:56:00.684Z,12.82
2018-12-06T22:58:31.828Z,12.79
2018-12-06T23:01:03.358Z,12.78
2018-12-06T23:03:34.138Z,12.74
2018-12-06T23:06:04.614Z,12.74
2018-12-06T23:08:34.677Z,12.84
2018-12-06T23:11:06.231Z,12.91
2018-12-06T23:13:36.329Z,12.99
2018-12-06T23:16:12.148Z,13.01
2018-12-06T23:18:42.157Z,13.00
2018-12-06T23:21:12.725Z,12.97
2018-12-06T23:23:43.186Z,12.98
2018-12-06T23:26:13.550Z,13.02
2018-12-06T23:28:44.218Z,13.02
2018-12-06T23:31:14.019Z,13.02
2018-12-06T23:33:45.128Z,13.04
2018-12-06T23:36:15.213Z,13.00
2018-12-06T23:38:45.540Z,12.99
2018-12-06T23:41:15.538Z,12.89
2018-12-06T23:43:45.547Z,12.89
2018-12-06T23:46:16.310Z,12.81
2018-12-06T23:48:46.317Z,12.81
2018-12-06T23:51:27.532Z,12.79
2018-12-06T23:53:57.499Z,12.74
2018-12-06T23:56:27.495Z,12.77
2018-12-06T23:58:57.499Z,12.76
